Time;durP1;ratioP1;P1;durP2;ratioP2;P2;SDS_P1;SDS_P2;PMS_P1;PMS_P2;Temp;Humidity;BMP_temperature;BMP_pressure;BME280_temperature;BME280_humidity;BME280_pressure;Samples;Min_cycle;Max_cycle;Signal;HPM_P1;HPM_P2
2022/04/17 00:00:41;;;;;;;6.70;4.70;;;;;;;6.44;52.28;101904.41;4975814;28;20169;-72
2022/04/17 00:03:10;;;;;;;5.15;4.40;;;;;;;6.49;52.20;101907.00;4981781;28;20124;-72
2022/04/17 00:05:36;;;;;;;7.05;4.68;;;;;;;6.47;52.34;101906.13;4971136;28;20426;-72
2022/04/17 00:08:03;;;;;;;6.10;4.40;;;;;;;6.43;52.10;101902.66;4992549;28;20060;-73
2022/04/17 00:10:31;;;;;;;5.13;4.45;;;;;;;6.43;52.62;101909.69;5003491;28;20050;-71
2022/04/17 00:12:58;;;;;;;5.07;4.20;;;;;;;6.43;52.38;101913.19;5005582;28;20474;-72
2022/04/17 00:15:25;;;;;;;5.95;4.65;;;;;;;6.26;52.95;101889.59;5002352;28;20049;-72
2022/04/17 00:17:51;;;;;;;5.32;3.80;;;;;;;6.38;53.03;101907.06;5008040;28;20149;-73
2022/04/17 00:20:19;;;;;;;6.28;4.20;;;;;;;6.30;53.21;101899.22;5008330;28;20471;-71
2022/04/17 00:22:46;;;;;;;4.85;4.15;;;;;;;6.27;52.69;101891.34;5001162;28;20141;-72
2022/04/17 00:25:12;;;;;;;4.22;3.83;;;;;;;6.28;52.77;101893.09;5001875;28;20058;-71
2022/04/17 00:27:39;;;;;;;6.43;3.92;;;;;;;6.27;52.45;101891.34;5006939;28;20060;-73
2022/04/17 00:30:07;;;;;;;5.45;3.85;;;;;;;6.16;53.26;101880.00;5008397;28;20068;-72
2022/04/17 00:32:35;;;;;;;5.10;4.05;;;;;;;6.20;53.17;101888.75;5006234;28;20097;-71
2022/04/17 00:35:03;;;;;;;6.85;4.15;;;;;;;6.06;53.27;101859.03;5003385;28;20107;-71
2022/04/17 00:37:30;;;;;;;4.78;4.07;;;;;;;6.19;53.69;101887.88;4999142;28;20046;-71
2022/04/17 00:39:57;;;;;;;5.85;4.05;;;;;;;6.14;53.60;101875.66;5005861;28;20046;-72
2022/04/17 00:42:25;;;;;;;5.68;3.78;;;;;;;6.02;53.95;101852.03;4999250;28;20457;-73
2022/04/17 00:44:52;;;;;;;8.40;4.13;;;;;;;6.04;53.58;101855.53;4998705;28;20042;-73
2022/04/17 00:47:18;;;;;;;5.38;3.92;;;;;;;6.05;53.63;101866.03;5002653;28;20046;-73
2022/04/17 00:49:46;;;;;;;5.80;4.30;;;;;;;6.04;54.04;101866.03;5021323;28;20760;-72
2022/04/17 00:52:13;;;;;;;6.65;4.30;;;;;;;6.08;53.53;101871.28;5002307;28;20108;-72
2022/04/17 00:54:45;;;;;;;5.70;4.05;;;;;;;6.09;53.51;101872.16;5002225;28;20105;-72
2022/04/17 00:57:13;;;;;;;5.38;4.28;;;;;;;5.97;54.19;101850.31;5006597;28;20652;-72
2022/04/17 00:59:42;;;;;;;5.15;4.25;;;;;;;6.05;53.77;101867.78;5004877;28;20506;-72
2022/04/17 01:02:09;;;;;;;6.43;4.28;;;;;;;6.02;54.30;101865.16;5002390;28;20074;-70
2022/04/17 01:04:37;;;;;;;5.00;4.30;;;;;;;5.96;53.32;101853.81;5002490;28;20050;-72
2022/04/17 01:07:04;;;;;;;4.78;4.10;;;;;;;5.97;54.02;101860.84;5001503;28;20080;-72
2022/04/17 01:09:31;;;;;;;4.97;3.95;;;;;;;5.96;53.89;101859.09;5003394;28;20081;-72
2022/04/17 01:11:58;;;;;;;5.72;4.18;;;;;;;5.92;54.01;101845.94;4996659;28;20113;-72
2022/04/17 01:14:29;;;;;;;7.25;4.40;;;;;;;5.94;54.15;101846.81;5007602;28;20049;-72
2022/04/17 01:16:56;;;;;;;5.25;4.20;;;;;;;5.89;54.22;101838.94;5003864;28;20050;-72
2022/04/17 01:19:23;;;;;;;5.53;3.88;;;;;;;5.86;54.40;101843.31;4987925;28;20046;-76
2022/04/17 01:21:50;;;;;;;6.63;4.43;;;;;;;5.81;55.23;101843.34;5004295;28;20053;-72
2022/04/17 01:27:03;;;;;;;4.70;4.05;;;;;;;5.72;55.31;101830.22;5004437;28;20042;-72
2022/04/17 01:29:37;;;;;;;5.05;4.53;;;;;;;5.77;55.51;101828.47;4999994;28;20053;-71
2022/04/17 01:32:07;;;;;;;5.10;3.85;;;;;;;5.63;55.70;101804.88;5001901;28;20153;-72
2022/04/17 01:34:34;;;;;;;5.18;4.20;;;;;;;5.59;56.07;101802.25;5001802;28;20049;-72
2022/04/17 01:37:01;;;;;;;6.30;4.25;;;;;;;5.55;56.34;101806.63;5004959;28;20041;-71
2022/04/17 01:39:29;;;;;;;5.57;4.38;;;;;;;5.65;56.34;101825.88;5006490;28;20053;-73
2022/04/17 01:41:59;;;;;;;5.75;4.18;;;;;;;5.47;56.17;101805.81;4998736;28;20049;-72
2022/04/17 01:44:28;;;;;;;5.63;4.57;;;;;;;5.50;57.30;101824.19;4999052;28;20470;-72
2022/04/17 01:46:57;;;;;;;7.72;4.50;;;;;;;5.44;57.40;101834.72;4999479;28;20050;-72
2022/04/17 01:49:24;;;;;;;7.07;4.45;;;;;;;5.29;57.78;101811.13;5002243;28;20057;-72
2022/04/17 01:51:54;;;;;;;6.72;4.60;;;;;;;5.44;57.20;101821.56;5000197;28;20157;-72
2022/04/17 01:54:23;;;;;;;5.18;4.57;;;;;;;5.42;57.70;101814.56;5004967;28;20089;-72
2022/04/17 01:56:50;;;;;;;7.22;4.55;;;;;;;5.40;57.79;101826.84;4999725;28;20042;-72
2022/04/17 01:59:18;;;;;;;4.28;3.92;;;;;;;5.38;57.96;101825.97;5000958;28;20104;-72
2022/04/17 02:01:45;;;;;;;6.13;4.30;;;;;;;5.41;58.02;101824.22;5006431;28;20062;-72
2022/04/17 02:04:13;;;;;;;6.95;4.28;;;;;;;5.37;58.02;101822.47;5002668;28;20046;-72
2022/04/17 02:06:40;;;;;;;6.68;4.20;;;;;;;5.40;57.89;101824.22;5002009;28;20092;-73
2022/04/17 02:09:12;;;;;;;5.25;4.20;;;;;;;5.40;57.58;101830.34;5007124;28;20050;-72
2022/04/17 02:11:40;;;;;;;7.10;4.75;;;;;;;5.32;57.26;101820.75;5003404;28;20183;-71
2022/04/17 02:14:08;;;;;;;5.28;4.22;;;;;;;5.27;57.71;101808.50;4998074;28;20100;-71
2022/04/17 02:16:34;;;;;;;7.13;4.32;;;;;;;5.25;58.00;101814.63;4998787;28;20061;-72
2022/04/17 02:19:02;;;;;;;4.25;3.70;;;;;;;5.23;57.81;101808.50;5005855;28;20371;-73
2022/04/17 02:21:29;;;;;;;5.85;4.38;;;;;;;5.24;57.79;101815.50;5006003;28;20483;-72
2022/04/17 02:23:56;;;;;;;6.00;4.35;;;;;;;5.27;58.24;101819.00;4999623;28;20104;-72
2022/04/17 02:26:23;;;;;;;5.00;4.03;;;;;;;5.23;58.55;101819.88;5004877;28;20096;-71
2022/04/17 02:28:50;;;;;;;5.82;4.32;;;;;;;5.15;58.09;101819.03;5001420;28;20463;-71
2022/04/17 02:31:17;;;;;;;5.55;3.90;;;;;;;5.00;58.88;101798.06;5002438;28;20041;-72
2022/04/17 02:33:44;;;;;;;5.03;3.95;;;;;;;5.06;58.59;101807.66;5005530;28;20053;-72
2022/04/17 02:36:11;;;;;;;5.72;3.78;;;;;;;5.02;59.14;101809.44;4998378;28;20046;-71
2022/04/17 02:38:37;;;;;;;6.68;4.32;;;;;;;4.98;59.38;101798.94;4999774;28;20053;-71
2022/04/17 02:41:04;;;;;;;4.80;4.05;;;;;;;4.87;59.28;101785.84;5001635;28;20506;-71
2022/04/17 02:43:31;;;;;;;5.10;4.05;;;;;;;5.03;59.50;101811.19;5001691;28;20502;-73
2022/04/17 02:45:57;;;;;;;6.97;4.10;;;;;;;4.97;59.09;101800.69;5006198;28;20050;-72
2022/04/17 02:48:24;;;;;;;5.40;3.83;;;;;;;4.98;59.09;101809.44;5002122;28;20443;-73
2022/04/17 02:50:51;;;;;;;5.22;4.10;;;;;;;4.92;58.92;101805.06;5002926;28;20063;-72
2022/04/17 02:53:18;;;;;;;9.13;4.13;;;;;;;4.94;59.03;101808.56;5002571;28;20050;-72
2022/04/17 02:55:45;;;;;;;4.95;3.55;;;;;;;4.81;59.17;101789.34;5002568;28;20556;-73
2022/04/17 02:58:11;;;;;;;6.03;3.53;;;;;;;4.93;59.17;101814.69;4998845;28;20057;-71
2022/04/17 03:06:11;;;;;;;5.30;4.00;;;;;;;4.96;59.48;101800.69;4997875;28;20046;-71
2022/04/17 03:08:41;;;;;;;4.32;3.78;;;;;;;4.98;59.18;101799.81;4999172;28;20489;-72
2022/04/17 03:11:08;;;;;;;;;;;;;;;4.97;59.06;101797.19;4999625;28;20678;-71
2022/04/17 03:13:35;;;;;;;4.30;3.83;;;;;;;4.92;59.57;101786.69;5000272;28;19926;-71
2022/04/17 03:16:03;;;;;;;6.32;3.63;;;;;;;4.96;59.43;101792.81;4999122;28;20073;-72
2022/04/17 03:18:30;;;;;;;7.60;3.75;;;;;;;4.94;58.90;101795.44;4993866;28;20139;-71
2022/04/17 03:20:58;;;;;;;4.55;3.50;;;;;;;4.89;59.25;101778.81;4993529;28;20069;-73
2022/04/17 03:23:26;;;;;;;6.18;3.45;;;;;;;4.87;59.21;101786.72;4992802;28;20102;-72
2022/04/17 03:25:53;;;;;;;4.80;3.50;;;;;;;4.88;59.34;101791.06;4999288;28;20133;-73
2022/04/17 03:28:21;;;;;;;3.88;3.47;;;;;;;4.87;59.62;101778.84;4998870;28;20089;-71
2022/04/17 03:30:47;;;;;;;5.38;3.83;;;;;;;4.79;58.73;101769.22;4991158;28;20065;-70
2022/04/17 03:33:14;;;;;;;4.07;3.67;;;;;;;4.72;59.79;101760.47;5001129;28;20137;-70
2022/04/17 03:35:41;;;;;;;6.03;3.60;;;;;;;4.79;59.88;101779.72;5000599;28;20050;-71
2022/04/17 03:38:09;;;;;;;4.93;3.75;;;;;;;4.78;60.52;101784.06;5005118;28;20071;-71
2022/04/17 03:40:36;;;;;;;4.95;3.85;;;;;;;4.82;60.98;101777.09;5004837;28;20477;-71
2022/04/17 03:43:04;;;;;;;4.72;3.58;;;;;;;4.83;59.60;101773.59;5000798;28;20857;-71
2022/04/17 03:45:31;;;;;;;5.78;3.50;;;;;;;4.82;59.91;101777.09;5009568;28;20098;-73
2022/04/17 03:47:59;;;;;;;5.20;3.85;;;;;;;4.79;59.66;101779.72;5004626;28;20595;-71
2022/04/17 03:50:26;;;;;;;4.65;3.75;;;;;;;4.80;60.32;101786.72;4999860;28;20072;-71
2022/04/17 03:52:53;;;;;;;6.75;4.03;;;;;;;4.83;60.46;101784.09;5000894;28;20049;-71
2022/04/17 03:55:20;;;;;;;6.40;4.05;;;;;;;4.84;60.09;101776.22;5003066;28;20049;-71
2022/04/17 03:57:47;;;;;;;5.90;3.95;;;;;;;4.83;60.02;101777.09;5021162;28;20109;-70
2022/04/17 04:00:14;;;;;;;4.35;3.70;;;;;;;4.78;60.63;101775.31;5005219;28;20041;-70
2022/04/17 04:02:43;;;;;;;4.38;3.90;;;;;;;4.70;60.68;101770.09;5002466;28;20050;-70
2022/04/17 04:05:11;;;;;;;5.75;3.35;;;;;;;4.71;60.74;101776.22;5002133;28;20058;-73
2022/04/17 04:07:39;;;;;;;6.22;3.90;;;;;;;4.70;61.17;101777.97;5002547;28;20072;-72
2022/04/17 04:10:07;;;;;;;5.68;3.83;;;;;;;4.66;60.62;101786.72;5001783;28;20089;-71
2022/04/17 04:12:34;;;;;;;5.03;3.60;;;;;;;4.66;60.80;101781.47;5007124;28;20049;-71
2022/04/17 04:15:01;;;;;;;4.68;3.92;;;;;;;4.65;61.01;101784.09;5006182;28;20058;-73
2022/04/17 04:17:28;;;;;;;7.68;3.45;;;;;;;4.46;61.49;101757.88;5008488;28;20057;-72
2022/04/17 04:19:54;;;;;;;5.35;3.70;;;;;;;4.59;61.15;101787.59;4996449;28;20054;-73
2022/04/17 04:22:21;;;;;;;4.90;3.58;;;;;;;4.36;61.61;101753.50;5007557;28;20064;-70
2022/04/17 04:24:48;;;;;;;5.63;3.28;;;;;;;4.45;61.12;101771.84;4998973;28;20077;-73
2022/04/17 04:30:01;;;;;;;4.72;3.80;;;;;;;4.41;61.29;101770.09;4996251;28;20074;-71
2022/04/17 04:32:28;;;;;;;7.30;3.88;;;;;;;4.43;61.56;101788.47;4996467;28;20106;-71
2022/04/17 04:35:00;;;;;;;4.18;3.70;;;;;;;4.42;61.74;101790.22;4998150;28;20061;-71
2022/04/17 04:37:27;;;;;;;5.85;3.60;;;;;;;4.36;62.23;101774.50;5001894;28;20049;-71
2022/04/17 04:39:53;;;;;;;4.30;3.47;;;;;;;4.46;62.27;101789.34;4997886;28;20058;-72
2022/04/17 04:42:20;;;;;;;4.82;3.70;;;;;;;4.47;61.69;101784.97;5002349;28;20073;-70
2022/04/17 04:46:06;;;;;;;5.57;3.58;;;;;;;4.53;61.30;101784.97;4998203;28;20046;-73
2022/04/17 04:47:35;;;;;;;4.78;3.75;;;;;;;4.47;61.89;101775.34;4987627;28;20456;-71
2022/04/17 04:50:02;;;;;;;4.53;3.58;;;;;;;4.44;61.60;101783.22;5000369;28;20463;-71
2022/04/17 04:52:35;;;;;;;6.05;3.75;;;;;;;4.42;62.17;101784.97;4994717;28;20240;-72
2022/04/17 04:55:04;;;;;;;6.53;3.88;;;;;;;4.33;62.22;101757.88;4988255;28;20136;-71
2022/04/17 04:57:31;;;;;;;6.82;3.78;;;;;;;4.48;62.17;101771.84;4999768;28;20723;-71
2022/04/17 04:59:58;;;;;;;5.72;3.70;;;;;;;4.62;62.27;101773.59;5002083;28;20517;-71
2022/04/17 05:02:25;;;;;;;7.32;4.18;;;;;;;4.67;62.25;101770.09;4998187;28;20046;-70
2022/04/17 05:04:52;;;;;;;6.80;3.88;;;;;;;4.74;61.36;101774.44;4984025;28;20050;-71
2022/04/17 05:07:19;;;;;;;6.15;3.95;;;;;;;4.80;61.80;101774.47;5002563;28;20517;-71
2022/04/17 05:09:45;;;;;;;5.70;3.90;;;;;;;4.82;60.98;101780.59;5002265;28;20058;-70
2022/04/17 05:12:12;;;;;;;5.93;4.05;;;;;;;4.86;61.67;101784.09;4999298;28;20050;-72
2022/04/17 05:14:41;;;;;;;5.38;4.20;;;;;;;4.84;61.42;101778.84;4994085;28;20153;-70
2022/04/17 05:17:09;;;;;;;6.25;4.00;;;;;;;4.89;61.49;101786.69;4997788;28;20045;-70
2022/04/17 05:19:35;;;;;;;9.60;3.80;;;;;;;4.85;61.22;101779.72;5005809;28;20049;-70
2022/04/17 05:22:03;;;;;;;5.63;4.10;;;;;;;4.86;61.13;101786.72;5001593;28;20567;-71
2022/04/17 05:24:30;;;;;;;8.50;5.57;;;;;;;4.85;61.77;101787.59;5002077;28;20096;-72
2022/04/17 05:26:57;;;;;;;6.25;4.55;;;;;;;4.89;61.09;101789.31;5000612;28;20046;-72
2022/04/17 05:29:23;;;;;;;5.05;4.15;;;;;;;4.92;60.55;101784.06;5005779;28;20121;-72
2022/04/17 05:31:50;;;;;;;6.15;4.03;;;;;;;4.81;60.67;101759.59;4997213;28;20050;-72
2022/04/17 05:34:17;;;;;;;5.47;4.43;;;;;;;4.88;60.89;101766.56;5007263;28;20120;-71
2022/04/17 05:36:43;;;;;;;6.70;4.88;;;;;;;5.02;60.37;101787.56;4976184;28;20612;-72
2022/04/17 05:39:10;;;;;;;6.72;4.53;;;;;;;5.02;60.92;101785.81;4995225;28;20050;-73
2022/04/17 05:41:38;;;;;;;7.05;4.93;;;;;;;5.06;60.78;101782.28;5005510;28;20153;-73
2022/04/17 05:44:07;;;;;;;6.80;4.70;;;;;;;5.09;60.85;101786.66;5000654;28;20127;-72
2022/04/17 05:46:39;;;;;;;5.68;4.90;;;;;;;5.10;60.49;101786.66;5002735;28;20112;-72
2022/04/17 05:49:06;;;;;;;7.65;4.75;;;;;;;5.14;60.63;101791.03;5001768;28;20413;-71
2022/04/17 05:51:36;;;;;;;6.47;5.10;;;;;;;5.18;60.37;101792.78;5004345;28;20064;-73
2022/04/17 05:54:07;;;;;;;8.83;5.63;;;;;;;5.23;59.86;101788.34;5000106;28;20061;-72
2022/04/17 05:56:37;;;;;;;6.57;4.78;;;;;;;5.24;59.89;101795.38;5000780;28;20065;-72
2022/04/17 05:59:07;;;;;;;6.05;5.20;;;;;;;5.32;60.59;101795.34;5002370;28;20038;-72
2022/04/17 06:01:34;;;;;;;9.18;5.53;;;;;;;5.33;61.06;101783.97;5008456;28;20046;-72
2022/04/17 06:04:04;;;;;;;5.65;5.07;;;;;;;5.43;61.06;101790.94;5000405;28;20060;-70
2022/04/17 06:06:30;;;;;;;6.47;4.90;;;;;;;5.47;60.65;101789.16;5005758;28;20045;-72
2022/04/17 06:08:57;;;;;;;5.88;4.80;;;;;;;5.54;60.88;101785.63;5003268;28;20130;-72
2022/04/17 06:11:24;;;;;;;7.43;5.07;;;;;;;5.68;60.18;101785.56;5001199;28;20077;-72
2022/04/17 06:13:51;;;;;;;8.00;5.38;;;;;;;5.78;58.96;101782.91;4998405;28;20054;-72
2022/04/17 06:16:17;;;;;;;6.00;4.80;;;;;;;5.83;58.93;101775.84;4998155;28;20049;-72
2022/04/17 06:18:45;;;;;;;7.05;5.25;;;;;;;5.95;57.92;101772.31;4998363;28;20046;-71
2022/04/17 06:21:12;;;;;;;9.07;4.30;;;;;;;6.02;58.12;101770.50;5000085;28;20125;-72
2022/04/17 06:23:39;;;;;;;6.72;4.57;;;;;;;6.16;58.33;101773.91;4997801;28;20057;-72
2022/04/17 06:26:08;;;;;;;5.43;4.80;;;;;;;6.40;57.53;101778.13;5004579;28;20132;-70
2022/04/17 06:28:36;;;;;;;7.68;5.38;;;;;;;6.64;56.64;101773.53;5002359;28;20060;-73
2022/04/17 06:31:07;;;;;;;7.20;4.45;;;;;;;6.96;55.32;101775.00;5004272;28;20042;-71
2022/04/17 06:33:34;;;;;;;6.88;4.45;;;;;;;7.30;53.94;101751.78;5001577;28;20352;-73
2022/04/17 06:36:00;;;;;;;5.35;4.47;;;;;;;7.91;52.02;101772.94;5003761;28;20057;-73
2022/04/17 06:38:28;;;;;;;6.72;4.22;;;;;;;8.24;50.50;101741.69;4999698;28;20117;-70
2022/04/17 06:40:55;;;;;;;5.63;4.00;;;;;;;9.04;49.11;101769.34;4999853;28;20849;-72
2022/04/17 06:43:22;;;;;;;5.43;4.63;;;;;;;9.63;47.26;101761.13;4997457;28;20045;-73
2022/04/17 06:45:48;;;;;;;4.63;4.00;;;;;;;10.00;46.92;101756.78;5000511;28;20482;-73
2022/04/17 06:48:21;;;;;;;5.82;3.88;;;;;;;10.36;45.21;101733.88;5003637;28;20108;-72
2022/04/17 06:50:50;;;;;;;5.97;3.90;;;;;;;11.10;43.63;101743.41;4996532;28;20081;-73
2022/04/17 06:53:18;;;;;;;4.63;3.67;;;;;;;11.41;42.36;101749.59;4999961;28;20058;-71
2022/04/17 06:55:46;;;;;;;5.72;4.10;;;;;;;11.59;42.22;101724.31;5001337;28;20041;-71
2022/04/17 06:58:14;;;;;;;4.05;3.65;;;;;;;11.78;41.32;101719.34;4997735;28;20093;-71
2022/04/17 07:00:40;;;;;;;7.05;4.32;;;;;;;11.37;42.70;101718.75;4996748;28;20081;-71
2022/04/17 07:03:07;;;;;;;4.97;4.20;;;;;;;11.48;42.64;101737.03;5002332;28;20073;-73
2022/04/17 07:05:34;;;;;;;6.20;4.03;;;;;;;11.51;42.67;101742.22;4998622;28;20060;-73
2022/04/17 07:08:03;;;;;;;5.53;3.67;;;;;;;11.69;42.96;101740.81;4999344;28;20042;-74
2022/04/17 07:10:31;;;;;;;6.80;3.97;;;;;;;11.84;42.11;101740.38;5001830;28;20184;-73
2022/04/17 07:12:58;;;;;;;4.38;3.97;;;;;;;11.89;42.43;101735.81;5004503;28;20050;-73
2022/04/17 07:15:26;;;;;;;5.32;4.05;;;;;;;11.56;41.97;101717.31;5009687;28;20085;-72
2022/04/17 07:17:54;;;;;;;4.25;3.63;;;;;;;11.84;42.04;101737.72;5005466;28;20057;-74
2022/04/17 07:20:22;;;;;;;5.00;3.75;;;;;;;12.08;42.13;101730.78;5001226;28;20050;-73
2022/04/17 07:22:49;;;;;;;4.13;3.70;;;;;;;12.19;41.56;101726.84;5006557;28;20159;-73
2022/04/17 07:25:19;;;;;;;6.43;4.22;;;;;;;12.14;42.21;101723.47;5007972;28;20050;-73
2022/04/17 07:27:50;;;;;;;4.55;3.33;;;;;;;12.45;40.94;101720.69;5009629;28;20061;-73
2022/04/17 07:30:20;;;;;;;7.18;3.55;;;;;;;12.54;39.64;101692.94;5008341;28;20066;-72
2022/04/17 07:32:52;;;;;;;3.92;3.10;;;;;;;12.78;40.52;101712.47;5003124;28;20153;-73
2022/04/17 07:35:20;;;;;;;4.65;2.92;;;;;;;12.86;39.67;101705.09;5003451;28;20080;-73
2022/04/17 07:37:55;;;;;;;4.50;3.08;;;;;;;12.53;39.34;101688.53;5002738;28;20046;-72
2022/04/17 07:40:25;;;;;;;4.25;3.28;;;;;;;12.37;40.29;101671.41;5009100;28;20129;-72
2022/04/17 07:42:53;;;;;;;4.53;2.70;;;;;;;12.52;40.03;101711.59;5006279;28;20058;-73
2022/04/17 07:45:21;;;;;;;4.43;2.95;;;;;;;12.55;40.35;101705.31;5004736;28;20145;-72
2022/04/17 07:47:49;;;;;;;4.63;2.88;;;;;;;12.78;41.06;101697.38;5008291;28;20064;-72
2022/04/17 07:50:18;;;;;;;3.83;2.72;;;;;;;13.33;39.19;101711.38;4999793;28;20041;-73
2022/04/17 07:52:45;;;;;;;3.83;2.78;;;;;;;13.47;38.74;101702.88;4998553;28;20743;-73
2022/04/17 07:55:14;;;;;;;4.72;2.63;;;;;;;13.91;37.46;101709.13;4993135;28;20123;-73
2022/04/17 08:00:35;;;;;;;3.55;2.10;;;;;;;14.82;34.71;101705.28;4994540;28;20045;-73
2022/04/17 08:03:20;;;;;;;3.67;2.10;;;;;;;14.94;33.09;101675.44;4998771;28;20065;-73
2022/04/17 08:05:49;;;;;;;3.50;2.35;;;;;;;15.18;34.03;101696.59;4997424;28;20053;-72
2022/04/17 08:08:16;;;;;;;2.85;2.20;;;;;;;15.42;33.38;101700.84;4996671;28;20124;-73
2022/04/17 08:10:43;;;;;;;2.67;1.90;;;;;;;15.51;31.86;101697.72;4997634;28;20050;-72
2022/04/17 08:13:09;;;;;;;3.75;2.20;;;;;;;15.31;31.58;101673.75;4995815;28;20046;-73
2022/04/17 08:15:36;;;;;;;2.53;1.80;;;;;;;14.95;31.88;101679.81;4991121;28;20435;-72
2022/04/17 08:18:03;;;;;;;2.70;2.00;;;;;;;14.96;33.32;101710.03;4978291;28;20061;-72
2022/04/17 08:20:30;;;;;;;3.22;2.13;;;;;;;14.92;32.19;101677.31;4975191;28;20130;-72
2022/04/17 08:22:56;;;;;;;4.47;2.28;;;;;;;15.03;32.99;101682.16;4978329;28;20054;-72
2022/04/17 08:25:24;;;;;;;2.70;2.20;;;;;;;15.12;32.63;101691.53;4977627;28;20061;-71
2022/04/17 08:27:55;;;;;;;5.95;2.53;;;;;;;15.06;32.77;101690.03;4975716;28;20498;-72
2022/04/17 08:30:24;;;;;;;5.10;2.40;;;;;;;15.05;33.06;101690.97;4977172;28;20063;-71
2022/04/17 08:32:52;;;;;;;3.65;2.40;;;;;;;14.85;32.93;101693.63;4980606;28;20058;-73
2022/04/17 08:35:19;;;;;;;4.55;2.70;;;;;;;14.44;34.07;101690.09;4987505;28;20068;-74
2022/04/17 08:37:46;;;;;;;2.05;1.88;;;;;;;14.12;34.30;101664.78;4995994;28;20536;-72
2022/04/17 08:40:13;;;;;;;3.00;2.20;;;;;;;14.27;34.58;101682.78;4996544;28;20049;-73
2022/04/17 08:42:41;;;;;;;3.65;2.17;;;;;;;14.48;34.05;101671.22;4995625;28;20046;-74
2022/04/17 08:45:11;;;;;;;3.80;2.03;;;;;;;14.64;35.30;101663.44;4996823;28;20060;-71
2022/04/17 08:47:41;;;;;;;3.15;2.22;;;;;;;14.94;34.50;101664.78;4998811;28;20187;-72
2022/04/17 08:50:09;;;;;;;3.28;2.13;;;;;;;15.44;33.14;101662.41;5002217;28;20498;-71
2022/04/17 08:52:38;;;;;;;2.83;2.20;;;;;;;15.57;32.30;101649.41;4995559;28;20652;-71
2022/04/17 08:55:05;;;;;;;2.38;2.08;;;;;;;15.56;32.19;101645.00;5006432;28;20057;-70
2022/04/17 08:57:32;;;;;;;3.40;2.10;;;;;;;15.21;33.67;101653.78;4992690;28;20049;-72
2022/04/17 09:00:00;;;;;;;2.63;2.15;;;;;;;14.62;33.96;101617.34;4997073;28;20058;-71
2022/04/17 09:02:26;;;;;;;3.95;2.47;;;;;;;14.56;34.45;101652.25;5005556;28;20399;-72
2022/04/17 09:04:53;;;;;;;2.67;1.85;;;;;;;14.04;34.08;101646.44;5004413;28;20141;-72
2022/04/17 09:07:20;;;;;;;4.63;2.28;;;;;;;13.91;34.39;101650.53;5002797;28;20053;-73
2022/04/17 09:09:48;;;;;;;3.45;2.03;;;;;;;13.67;34.30;101653.28;5004920;28;20064;-72
2022/04/17 09:12:33;;;;;;;2.83;2.05;;;;;;;13.37;34.76;101653.59;5003413;28;20046;-73
2022/04/17 09:15:00;;;;;;;5.05;2.80;;;;;;;13.19;35.60;101633.91;4999641;28;20050;-71
2022/04/17 09:17:31;;;;;;;4.57;3.70;;;;;;;13.18;36.59;101642.78;4984604;28;20045;-72
2022/04/17 09:19:58;;;;;;;2.55;2.00;;;;;;;13.27;35.52;101643.31;4983093;28;20517;-71
2022/04/17 09:22:25;;;;;;;2.47;1.75;;;;;;;13.21;35.88;101642.69;4997332;28;20080;-74
2022/04/17 09:24:52;;;;;;;3.10;2.10;;;;;;;13.21;35.13;101640.91;4998041;28;20093;-73
2022/04/17 09:27:25;;;;;;;3.10;1.80;;;;;;;13.24;35.04;101642.53;5001024;28;20507;-73
2022/04/17 09:29:52;;;;;;;3.63;1.95;;;;;;;13.00;35.36;101645.19;4995213;28;20108;-71
2022/04/17 09:32:20;;;;;;;3.83;2.00;;;;;;;12.61;35.24;101594.34;5000889;28;20477;-72
2022/04/17 09:34:56;;;;;;;5.00;2.20;;;;;;;12.62;35.88;101593.41;4993413;28;20164;-74
2022/04/17 09:37:24;;;;;;;3.53;2.40;;;;;;;12.77;35.48;101623.88;4995585;28;20108;-73
2022/04/17 09:39:54;;;;;;;3.67;1.88;;;;;;;12.85;35.72;101620.97;5003048;28;20415;-72
2022/04/17 09:42:23;;;;;;;2.75;1.80;;;;;;;13.01;35.09;101611.47;4996918;28;20050;-73
2022/04/17 09:44:54;;;;;;;2.30;1.80;;;;;;;13.15;34.83;101606.53;5001891;28;20053;-73
2022/04/17 09:47:23;;;;;;;4.53;1.80;;;;;;;13.19;35.11;101584.22;5002399;28;20410;-72
2022/04/17 09:49:57;;;;;;;2.30;1.50;;;;;;;13.54;34.68;101617.41;5000970;28;20290;-71
2022/04/17 09:52:26;;;;;;;2.70;1.63;;;;;;;13.74;34.85;101602.44;5003836;28;20149;-72
2022/04/17 09:54:53;;;;;;;3.25;2.00;;;;;;;13.75;34.83;101580.22;5002301;28;20057;-71
2022/04/17 09:57:28;;;;;;;3.50;1.90;;;;;;;13.91;34.64;101599.94;4997858;28;20046;-73
2022/04/17 10:00:18;;;;;;;2.28;1.63;;;;;;;13.86;34.82;101586.81;4998119;28;20104;-73
2022/04/17 10:02:46;;;;;;;2.58;1.83;;;;;;;13.95;34.12;101594.44;4996147;28;20111;-71
2022/04/17 10:05:15;;;;;;;3.88;1.70;;;;;;;13.95;33.29;101567.81;4997895;28;20054;-74
2022/04/17 10:07:44;;;;;;;3.28;1.90;;;;;;;14.14;32.83;101572.34;5002647;28;20111;-74
2022/04/17 10:10:12;;;;;;;3.22;2.00;;;;;;;14.25;33.74;101560.28;5004124;28;20124;-71
2022/04/17 10:12:41;;;;;;;2.70;2.00;;;;;;;14.22;34.08;101548.88;4995385;28;20522;-73
2022/04/17 10:15:08;;;;;;;3.88;1.80;;;;;;;14.09;34.85;101545.91;4997756;28;20046;-73
2022/04/17 10:17:38;;;;;;;2.38;1.80;;;;;;;13.98;34.92;101545.50;4999378;28;20061;-73
2022/04/17 10:20:08;;;;;;;3.17;1.80;;;;;;;14.10;34.38;101549.44;5002611;28;20107;-73
2022/04/17 10:22:36;;;;;;;2.97;1.73;;;;;;;14.31;34.26;101540.50;5003948;28;20054;-73
2022/04/17 10:25:05;;;;;;;3.58;1.67;;;;;;;14.45;34.09;101532.81;4997591;28;20139;-73
2022/04/17 10:27:54;;;;;;;4.20;1.85;;;;;;;14.39;34.70;101536.56;4996539;28;22121;-71
2022/04/17 10:30:29;;;;;;;2.83;1.55;;;;;;;14.50;34.38;101538.75;4996038;28;20081;-73
2022/04/17 10:33:14;;;;;;;2.80;1.75;;;;;;;14.73;33.42;101537.72;4996767;28;20054;-72
2022/04/17 10:35:59;;;;;;;1.90;1.52;;;;;;;14.83;32.62;101531.03;4995545;28;20035;-73
2022/04/17 10:38:42;;;;;;;2.35;1.85;;;;;;;14.80;33.03;101515.16;4994939;28;20049;-73
2022/04/17 10:41:12;;;;;;;3.08;1.70;;;;;;;14.92;32.61;101503.94;4995031;28;20133;-73
2022/04/17 10:43:59;;;;;;;5.28;1.98;;;;;;;14.87;32.61;101502.41;4992939;28;20046;-73
2022/04/17 10:46:26;;;;;;;3.47;1.65;;;;;;;14.68;31.88;101500.59;4994970;28;20411;-71
2022/04/17 10:48:57;;;;;;;2.47;1.85;;;;;;;14.68;32.03;101510.41;4991982;28;20632;-73
2022/04/17 10:51:26;;;;;;;2.35;1.80;;;;;;;14.76;32.28;101502.94;4993548;28;20074;-72
2022/04/17 10:54:04;;;;;;;3.95;1.75;;;;;;;14.51;32.03;101444.56;4994945;28;20459;-73
2022/04/17 10:56:36;;;;;;;2.83;1.80;;;;;;;14.60;32.46;101492.13;4999654;28;20051;-73
2022/04/17 10:59:14;;;;;;;3.30;1.80;;;;;;;14.50;32.67;101469.47;4997047;28;20057;-73
2022/04/17 11:01:41;;;;;;;5.47;1.85;;;;;;;14.79;32.53;101473.47;4993705;28;20041;-72
2022/04/17 11:04:28;;;;;;;3.35;1.50;;;;;;;15.05;31.88;101472.22;4999020;28;20132;-72
2022/04/17 11:07:06;;;;;;;2.20;1.50;;;;;;;15.30;31.59;101471.84;4995885;28;20049;-73
2022/04/17 11:09:36;;;;;;;3.83;1.77;;;;;;;15.41;31.05;101461.53;5009838;28;20129;-72
2022/04/17 11:12:26;;;;;;;1.92;1.60;;;;;;;15.50;31.04;101445.03;5005053;28;20056;-73
2022/04/17 11:15:02;;;;;;;2.28;1.50;;;;;;;15.61;30.98;101434.72;5000503;28;20061;-71
2022/04/17 11:17:30;;;;;;;4.05;1.58;;;;;;;15.75;30.34;101452.69;5002839;28;20466;-72
2022/04/17 11:19:59;;;;;;;1.77;1.30;;;;;;;15.59;30.25;101444.59;4994516;28;20419;-73
2022/04/17 11:22:33;;;;;;;2.03;1.40;;;;;;;15.47;30.53;101461.22;4998847;28;20143;-71
2022/04/17 11:25:02;;;;;;;4.38;2.00;;;;;;;15.31;30.09;101423.75;5003580;28;20222;-72
2022/04/17 11:27:31;;;;;;;3.08;1.52;;;;;;;15.46;30.59;101451.47;5005377;28;20064;-73
2022/04/17 11:29:59;;;;;;;2.28;1.60;;;;;;;15.36;30.86;101442.22;5006018;28;20045;-73
2022/04/17 11:32:29;;;;;;;2.00;1.40;;;;;;;15.36;30.73;101444.88;4996795;28;20088;-71
2022/04/17 11:34:57;;;;;;;4.05;1.73;;;;;;;15.41;30.78;101437.53;4995132;28;20412;-71
2022/04/17 11:37:26;;;;;;;1.75;1.35;;;;;;;15.52;30.65;101435.16;4997606;28;20054;-72
2022/04/17 11:39:57;;;;;;;4.53;1.35;;;;;;;15.53;30.06;101425.34;4985176;28;20058;-71
2022/04/17 11:42:28;;;;;;;3.30;1.58;;;;;;;15.49;29.56;101416.63;4981679;28;20085;-73
2022/04/17 11:45:01;;;;;;;1.38;1.02;;;;;;;15.52;29.57;101400.44;4978562;28;20069;-72
2022/04/17 11:47:38;;;;;;;5.45;1.25;;;;;;;15.56;29.39;101399.41;4988090;28;20501;-72
2022/04/17 11:50:08;;;;;;;1.80;1.17;;;;;;;15.79;29.20;101407.06;5001872;28;20549;-72